sensor_id;sensor_type;location;lat;lon;timestamp;P1;P2;P0
46681;PMS5003;34101;53.430;-2.224;2023-05-07T00:01:52;14;14;
46681;PMS5003;34101;53.430;-2.224;2023-05-07T00:04:19;15;15;
46681;PMS5003;34101;53.430;-2.224;2023-05-07T00:06:46;15;15;
46681;PMS5003;34101;53.430;-2.224;2023-05-07T00:09:13;14;14;
46681;PMS5003;34101;53.430;-2.224;2023-05-07T00:11:41;17;16;
46681;PMS5003;34101;53.430;-2.224;2023-05-07T00:14:08;20;20;
46681;PMS5003;34101;53.430;-2.224;2023-05-07T00:16:35;26;23;
46681;PMS5003;34101;53.430;-2.224;2023-05-07T00:19:03;22;22;
46681;PMS5003;34101;53.430;-2.224;2023-05-07T00:21:30;18;18;
46681;PMS5003;34101;53.430;-2.224;2023-05-07T00:23:57;17;17;
46681;PMS5003;34101;53.430;-2.224;2023-05-07T00:26:24;21;21;
46681;PMS5003;34101;53.430;-2.224;2023-05-07T00:28:51;18;17;
46681;PMS5003;34101;53.430;-2.224;2023-05-07T00:31:18;21;20;
46681;PMS5003;34101;53.430;-2.224;2023-05-07T00:33:45;26;21;
46681;PMS5003;34101;53.430;-2.224;2023-05-07T00:36:13;21;18;
46681;PMS5003;34101;53.430;-2.224;2023-05-07T00:38:40;23;22;
46681;PMS5003;34101;53.430;-2.224;2023-05-07T00:41:07;26;25;
46681;PMS5003;34101;53.430;-2.224;2023-05-07T00:43:34;20;20;
46681;PMS5003;34101;53.430;-2.224;2023-05-07T00:46:01;21;20;
46681;PMS5003;34101;53.430;-2.224;2023-05-07T00:48:29;23;21;
46681;PMS5003;34101;53.430;-2.224;2023-05-07T00:50:57;20;20;
46681;PMS5003;34101;53.430;-2.224;2023-05-07T00:53:24;24;24;
46681;PMS5003;34101;53.430;-2.224;2023-05-07T00:55:51;21;21;
46681;PMS5003;34101;53.430;-2.224;2023-05-07T00:58:19;27;25;
46681;PMS5003;34101;53.430;-2.224;2023-05-07T01:00:47;23;20;
46681;PMS5003;34101;53.430;-2.224;2023-05-07T01:03:14;22;22;
46681;PMS5003;34101;53.430;-2.224;2023-05-07T01:05:42;24;24;
46681;PMS5003;34101;53.430;-2.224;2023-05-07T01:08:12;26;25;
46681;PMS5003;34101;53.430;-2.224;2023-05-07T01:10:40;26;24;
46681;PMS5003;34101;53.430;-2.224;2023-05-07T01:13:08;26;23;
46681;PMS5003;34101;53.430;-2.224;2023-05-07T01:15:36;29;26;
46681;PMS5003;34101;53.430;-2.224;2023-05-07T01:18:03;24;22;
46681;PMS5003;34101;53.430;-2.224;2023-05-07T01:20:31;22;22;
46681;PMS5003;34101;53.430;-2.224;2023-05-07T01:22:58;27;27;
46681;PMS5003;34101;53.430;-2.224;2023-05-07T01:25:27;24;24;
46681;PMS5003;34101;53.430;-2.224;2023-05-07T01:27:54;32;31;
46681;PMS5003;34101;53.430;-2.224;2023-05-07T01:30:22;27;27;
46681;PMS5003;34101;53.430;-2.224;2023-05-07T01:32:50;28;25;
46681;PMS5003;34101;53.430;-2.224;2023-05-07T01:35:21;25;25;
46681;PMS5003;34101;53.430;-2.224;2023-05-07T01:37:51;25;25;
46681;PMS5003;34101;53.430;-2.224;2023-05-07T01:40:20;26;26;
46681;PMS5003;34101;53.430;-2.224;2023-05-07T01:42:48;22;22;
46681;PMS5003;34101;53.430;-2.224;2023-05-07T01:45:16;23;22;
46681;PMS5003;34101;53.430;-2.224;2023-05-07T01:47:43;26;26;
46681;PMS5003;34101;53.430;-2.224;2023-05-07T01:50:11;22;22;
46681;PMS5003;34101;53.430;-2.224;2023-05-07T01:52:39;24;23;
46681;PMS5003;34101;53.430;-2.224;2023-05-07T01:55:07;27;27;
46681;PMS5003;34101;53.430;-2.224;2023-05-07T01:57:34;26;26;
46681;PMS5003;34101;53.430;-2.224;2023-05-07T02:00:02;22;21;
46681;PMS5003;34101;53.430;-2.224;2023-05-07T02:02:54;25;24;
46681;PMS5003;34101;53.430;-2.224;2023-05-07T02:05:21;25;22;
46681;PMS5003;34101;53.430;-2.224;2023-05-07T02:09:30;21;21;
46681;PMS5003;34101;53.430;-2.224;2023-05-07T02:12:08;21;20;
46681;PMS5003;34101;53.430;-2.224;2023-05-07T02:14:36;28;23;
46681;PMS5003;34101;53.430;-2.224;2023-05-07T02:17:03;24;24;
46681;PMS5003;34101;53.430;-2.224;2023-05-07T02:19:31;22;22;
46681;PMS5003;34101;53.430;-2.224;2023-05-07T02:21:58;24;24;
46681;PMS5003;34101;53.430;-2.224;2023-05-07T02:24:26;30;29;
46681;PMS5003;34101;53.430;-2.224;2023-05-07T02:26:53;25;25;
46681;PMS5003;34101;53.430;-2.224;2023-05-07T02:29:21;25;23;
46681;PMS5003;34101;53.430;-2.224;2023-05-07T02:31:48;25;25;
46681;PMS5003;34101;53.430;-2.224;2023-05-07T02:34:20;27;26;
46681;PMS5003;34101;53.430;-2.224;2023-05-07T02:36:47;28;28;
46681;PMS5003;34101;53.430;-2.224;2023-05-07T02:39:14;28;26;
46681;PMS5003;34101;53.430;-2.224;2023-05-07T02:41:43;22;21;
46681;PMS5003;34101;53.430;-2.224;2023-05-07T02:44:10;21;21;
46681;PMS5003;34101;53.430;-2.224;2023-05-07T02:46:37;32;27;
46681;PMS5003;34101;53.430;-2.224;2023-05-07T02:49:05;28;27;
46681;PMS5003;34101;53.430;-2.224;2023-05-07T02:51:32;29;27;
46681;PMS5003;34101;53.430;-2.224;2023-05-07T02:54:00;25;25;
46681;PMS5003;34101;53.430;-2.224;2023-05-07T02:56:27;24;23;
46681;PMS5003;34101;53.430;-2.224;2023-05-07T02:58:54;23;23;
46681;PMS5003;34101;53.430;-2.224;2023-05-07T03:01:22;32;29;
46681;PMS5003;34101;53.430;-2.224;2023-05-07T03:03:49;22;22;
46681;PMS5003;34101;53.430;-2.224;2023-05-07T03:06:17;29;26;
46681;PMS5003;34101;53.430;-2.224;2023-05-07T03:08:44;24;24;
46681;PMS5003;34101;53.430;-2.224;2023-05-07T03:11:11;27;27;
46681;PMS5003;34101;53.430;-2.224;2023-05-07T03:13:39;27;24;
46681;PMS5003;34101;53.430;-2.224;2023-05-07T03:16:06;21;21;
46681;PMS5003;34101;53.430;-2.224;2023-05-07T03:18:34;25;21;
46681;PMS5003;34101;53.430;-2.224;2023-05-07T03:21:01;25;24;
46681;PMS5003;34101;53.430;-2.224;2023-05-07T03:23:28;28;27;
46681;PMS5003;34101;53.430;-2.224;2023-05-07T03:25:55;22;20;
46681;PMS5003;34101;53.430;-2.224;2023-05-07T03:28:22;24;21;
46681;PMS5003;34101;53.430;-2.224;2023-05-07T03:30:50;22;22;
46681;PMS5003;34101;53.430;-2.224;2023-05-07T03:33:17;23;20;
46681;PMS5003;34101;53.430;-2.224;2023-05-07T03:35:44;20;19;
46681;PMS5003;34101;53.430;-2.224;2023-05-07T03:38:11;22;22;
46681;PMS5003;34101;53.430;-2.224;2023-05-07T03:40:39;21;21;
46681;PMS5003;34101;53.430;-2.224;2023-05-07T03:43:06;25;23;
46681;PMS5003;34101;53.430;-2.224;2023-05-07T03:45:33;23;23;
46681;PMS5003;34101;53.430;-2.224;2023-05-07T03:48:00;26;24;
46681;PMS5003;34101;53.430;-2.224;2023-05-07T03:50:27;19;19;
46681;PMS5003;34101;53.430;-2.224;2023-05-07T03:52:54;22;21;
46681;PMS5003;34101;53.430;-2.224;2023-05-07T03:55:21;21;19;
46681;PMS5003;34101;53.430;-2.224;2023-05-07T03:57:48;21;21;
46681;PMS5003;34101;53.430;-2.224;2023-05-07T04:00:16;20;19;
46681;PMS5003;34101;53.430;-2.224;2023-05-07T04:02:43;21;20;
46681;PMS5003;34101;53.430;-2.224;2023-05-07T04:05:10;22;22;
46681;PMS5003;34101;53.430;-2.224;2023-05-07T04:07:44;22;21;
46681;PMS5003;34101;53.430;-2.224;2023-05-07T04:10:11;22;20;
46681;PMS5003;34101;53.430;-2.224;2023-05-07T04:12:39;22;21;
46681;PMS5003;34101;53.430;-2.224;2023-05-07T04:15:06;23;21;
46681;PMS5003;34101;53.430;-2.224;2023-05-07T04:17:34;22;22;
46681;PMS5003;34101;53.430;-2.224;2023-05-07T04:20:02;21;21;
46681;PMS5003;34101;53.430;-2.224;2023-05-07T04:22:35;25;24;
46681;PMS5003;34101;53.430;-2.224;2023-05-07T04:25:02;22;22;
46681;PMS5003;34101;53.430;-2.224;2023-05-07T04:27:29;18;18;
46681;PMS5003;34101;53.430;-2.224;2023-05-07T04:29:57;21;20;
46681;PMS5003;34101;53.430;-2.224;2023-05-07T04:32:24;23;23;
46681;PMS5003;34101;53.430;-2.224;2023-05-07T04:34:51;23;21;
46681;PMS5003;34101;53.430;-2.224;2023-05-07T04:37:19;26;26;
46681;PMS5003;34101;53.430;-2.224;2023-05-07T04:39:46;25;23;
46681;PMS5003;34101;53.430;-2.224;2023-05-07T04:42:14;22;22;
46681;PMS5003;34101;53.430;-2.224;2023-05-07T04:44:41;27;24;
46681;PMS5003;34101;53.430;-2.224;2023-05-07T04:47:10;28;26;
46681;PMS5003;34101;53.430;-2.224;2023-05-07T04:49:37;27;25;
46681;PMS5003;34101;53.430;-2.224;2023-05-07T04:52:04;19;19;
46681;PMS5003;34101;53.430;-2.224;2023-05-07T04:54:32;27;23;
46681;PMS5003;34101;53.430;-2.224;2023-05-07T04:56:59;23;21;
46681;PMS5003;34101;53.430;-2.224;2023-05-07T04:59:26;23;22;
46681;PMS5003;34101;53.430;-2.224;2023-05-07T05:01:53;23;23;
46681;PMS5003;34101;53.430;-2.224;2023-05-07T05:04:20;29;24;
46681;PMS5003;34101;53.430;-2.224;2023-05-07T05:06:48;22;22;
46681;PMS5003;34101;53.430;-2.224;2023-05-07T05:09:15;25;25;
46681;PMS5003;34101;53.430;-2.224;2023-05-07T05:11:42;28;28;
46681;PMS5003;34101;53.430;-2.224;2023-05-07T05:14:10;24;24;
46681;PMS5003;34101;53.430;-2.224;2023-05-07T05:16:37;24;23;
46681;PMS5003;34101;53.430;-2.224;2023-05-07T05:19:04;21;21;
46681;PMS5003;34101;53.430;-2.224;2023-05-07T05:21:31;25;24;
46681;PMS5003;34101;53.430;-2.224;2023-05-07T05:23:59;28;27;
46681;PMS5003;34101;53.430;-2.224;2023-05-07T05:26:25;27;24;
46681;PMS5003;34101;53.430;-2.224;2023-05-07T05:28:52;21;21;
46681;PMS5003;34101;53.430;-2.224;2023-05-07T05:31:19;32;29;
46681;PMS5003;34101;53.430;-2.224;2023-05-07T05:33:46;23;22;
46681;PMS5003;34101;53.430;-2.224;2023-05-07T05:36:14;29;26;
46681;PMS5003;34101;53.430;-2.224;2023-05-07T05:38:41;22;22;
46681;PMS5003;34101;53.430;-2.224;2023-05-07T05:41:08;24;23;
46681;PMS5003;34101;53.430;-2.224;2023-05-07T05:43:35;26;25;
46681;PMS5003;34101;53.430;-2.224;2023-05-07T05:46:03;25;25;
46681;PMS5003;34101;53.430;-2.224;2023-05-07T05:48:30;23;23;
46681;PMS5003;34101;53.430;-2.224;2023-05-07T05:50:57;20;18;
46681;PMS5003;34101;53.430;-2.224;2023-05-07T05:53:24;27;24;
46681;PMS5003;34101;53.430;-2.224;2023-05-07T05:55:52;25;22;
46681;PMS5003;34101;53.430;-2.224;2023-05-07T05:58:19;24;23;
46681;PMS5003;34101;53.430;-2.224;2023-05-07T06:00:47;22;20;
46681;PMS5003;34101;53.430;-2.224;2023-05-07T06:03:15;23;23;
46681;PMS5003;34101;53.430;-2.224;2023-05-07T06:05:42;24;22;
46681;PMS5003;34101;53.430;-2.224;2023-05-07T06:08:09;22;22;
46681;PMS5003;34101;53.430;-2.224;2023-05-07T06:10:37;28;24;
46681;PMS5003;34101;53.430;-2.224;2023-05-07T06:13:04;24;21;
46681;PMS5003;34101;53.430;-2.224;2023-05-07T06:15:32;20;19;
46681;PMS5003;34101;53.430;-2.224;2023-05-07T06:17:59;24;23;
46681;PMS5003;34101;53.430;-2.224;2023-05-07T06:20:26;20;19;
46681;PMS5003;34101;53.430;-2.224;2023-05-07T06:22:54;23;20;
46681;PMS5003;34101;53.430;-2.224;2023-05-07T06:25:21;21;21;
46681;PMS5003;34101;53.430;-2.224;2023-05-07T06:27:48;23;21;
46681;PMS5003;34101;53.430;-2.224;2023-05-07T06:30:15;21;21;
46681;PMS5003;34101;53.430;-2.224;2023-05-07T06:32:43;22;20;
46681;PMS5003;34101;53.430;-2.224;2023-05-07T06:35:15;21;21;
46681;PMS5003;34101;53.430;-2.224;2023-05-07T06:37:42;26;25;
46681;PMS5003;34101;53.430;-2.224;2023-05-07T06:40:09;24;22;
46681;PMS5003;34101;53.430;-2.224;2023-05-07T06:42:37;24;21;
46681;PMS5003;34101;53.430;-2.224;2023-05-07T06:45:05;27;23;
46681;PMS5003;34101;53.430;-2.224;2023-05-07T06:47:33;21;18;
46681;PMS5003;34101;53.430;-2.224;2023-05-07T06:50:01;17;17;
46681;PMS5003;34101;53.430;-2.224;2023-05-07T06:52:29;22;21;
46681;PMS5003;34101;53.430;-2.224;2023-05-07T06:54:56;21;18;
46681;PMS5003;34101;53.430;-2.224;2023-05-07T06:57:23;17;14;
46681;PMS5003;34101;53.430;-2.224;2023-05-07T06:59:50;12;12;
46681;PMS5003;34101;53.430;-2.224;2023-05-07T07:02:18;11;10;
46681;PMS5003;34101;53.430;-2.224;2023-05-07T07:04:46;9;9;
46681;PMS5003;34101;53.430;-2.224;2023-05-07T07:07:13;11;10;
46681;PMS5003;34101;53.430;-2.224;2023-05-07T07:09:41;11;10;
46681;PMS5003;34101;53.430;-2.224;2023-05-07T07:12:13;10;9;
46681;PMS5003;34101;53.430;-2.224;2023-05-07T07:14:41;8;8;
46681;PMS5003;34101;53.430;-2.224;2023-05-07T07:17:08;6;6;
46681;PMS5003;34101;53.430;-2.224;2023-05-07T07:19:36;8;8;
46681;PMS5003;34101;53.430;-2.224;2023-05-07T07:22:03;11;7;
46681;PMS5003;34101;53.430;-2.224;2023-05-07T07:24:31;9;8;
46681;PMS5003;34101;53.430;-2.224;2023-05-07T07:26:58;8;6;
46681;PMS5003;34101;53.430;-2.224;2023-05-07T07:29:25;8;8;
46681;PMS5003;34101;53.430;-2.224;2023-05-07T07:31:52;8;6;
46681;PMS5003;34101;53.430;-2.224;2023-05-07T07:34:20;7;6;
46681;PMS5003;34101;53.430;-2.224;2023-05-07T07:36:47;7;5;
46681;PMS5003;34101;53.430;-2.224;2023-05-07T07:39:14;7;6;
46681;PMS5003;34101;53.430;-2.224;2023-05-07T07:41:42;4;4;
46681;PMS5003;34101;53.430;-2.224;2023-05-07T07:44:09;8;8;
46681;PMS5003;34101;53.430;-2.224;2023-05-07T07:46:37;6;6;
46681;PMS5003;34101;53.430;-2.224;2023-05-07T07:49:04;8;7;
46681;PMS5003;34101;53.430;-2.224;2023-05-07T07:51:31;9;6;
46681;PMS5003;34101;53.430;-2.224;2023-05-07T07:53:59;6;6;
46681;PMS5003;34101;53.430;-2.224;2023-05-07T07:56:26;5;5;
46681;PMS5003;34101;53.430;-2.224;2023-05-07T07:58:53;6;6;
46681;PMS5003;34101;53.430;-2.224;2023-05-07T08:01:21;6;4;
46681;PMS5003;34101;53.430;-2.224;2023-05-07T08:03:48;7;6;
46681;PMS5003;34101;53.430;-2.224;2023-05-07T08:06:15;3;3;
46681;PMS5003;34101;53.430;-2.224;2023-05-07T08:08:43;5;3;
46681;PMS5003;34101;53.430;-2.224;2023-05-07T08:11:15;5;5;
46681;PMS5003;34101;53.430;-2.224;2023-05-07T08:13:43;5;3;
46681;PMS5003;34101;53.430;-2.224;2023-05-07T08:16:10;6;3;
46681;PMS5003;34101;53.430;-2.224;2023-05-07T08:18:37;6;6;
46681;PMS5003;34101;53.430;-2.224;2023-05-07T08:21:05;3;3;
46681;PMS5003;34101;53.430;-2.224;2023-05-07T08:23:32;5;4;
46681;PMS5003;34101;53.430;-2.224;2023-05-07T08:25:59;4;3;
46681;PMS5003;34101;53.430;-2.224;2023-05-07T08:28:27;4;4;
46681;PMS5003;34101;53.430;-2.224;2023-05-07T08:30:54;5;5;
46681;PMS5003;34101;53.430;-2.224;2023-05-07T08:33:22;5;5;
46681;PMS5003;34101;53.430;-2.224;2023-05-07T08:35:49;6;5;
46681;PMS5003;34101;53.430;-2.224;2023-05-07T08:38:16;6;4;
46681;PMS5003;34101;53.430;-2.224;2023-05-07T08:40:44;5;3;
46681;PMS5003;34101;53.430;-2.224;2023-05-07T08:43:12;7;6;
46681;PMS5003;34101;53.430;-2.224;2023-05-07T08:45:41;9;4;
46681;PMS5003;34101;53.430;-2.224;2023-05-07T08:48:15;7;5;
46681;PMS5003;34101;53.430;-2.224;2023-05-07T08:50:48;5;4;
46681;PMS5003;34101;53.430;-2.224;2023-05-07T08:53:16;7;6;
46681;PMS5003;34101;53.430;-2.224;2023-05-07T08:55:49;6;4;
46681;PMS5003;34101;53.430;-2.224;2023-05-07T08:58:16;6;4;
46681;PMS5003;34101;53.430;-2.224;2023-05-07T09:00:44;7;5;
46681;PMS5003;34101;53.430;-2.224;2023-05-07T09:03:12;6;4;
46681;PMS5003;34101;53.430;-2.224;2023-05-07T09:05:39;5;5;
46681;PMS5003;34101;53.430;-2.224;2023-05-07T09:08:08;3;2;
46681;PMS5003;34101;53.430;-2.224;2023-05-07T09:10:35;4;4;
46681;PMS5003;34101;53.430;-2.224;2023-05-07T09:13:02;6;4;
46681;PMS5003;34101;53.430;-2.224;2023-05-07T09:15:30;9;5;
46681;PMS5003;34101;53.430;-2.224;2023-05-07T09:17:59;4;4;
46681;PMS5003;34101;53.430;-2.224;2023-05-07T09:20:26;4;4;
46681;PMS5003;34101;53.430;-2.224;2023-05-07T09:22:55;2;2;
46681;PMS5003;34101;53.430;-2.224;2023-05-07T09:25:27;7;5;
46681;PMS5003;34101;53.430;-2.224;2023-05-07T09:27:56;5;3;
46681;PMS5003;34101;53.430;-2.224;2023-05-07T09:30:27;4;4;
46681;PMS5003;34101;53.430;-2.224;2023-05-07T09:32:55;3;3;
46681;PMS5003;34101;53.430;-2.224;2023-05-07T09:35:23;7;5;
46681;PMS5003;34101;53.430;-2.224;2023-05-07T09:37:50;4;3;
46681;PMS5003;34101;53.430;-2.224;2023-05-07T09:40:22;5;3;
46681;PMS5003;34101;53.430;-2.224;2023-05-07T09:42:50;5;5;
46681;PMS5003;34101;53.430;-2.224;2023-05-07T09:45:21;4;4;
46681;PMS5003;34101;53.430;-2.224;2023-05-07T09:47:48;2;2;
46681;PMS5003;34101;53.430;-2.224;2023-05-07T09:50:20;5;5;
46681;PMS5003;34101;53.430;-2.224;2023-05-07T09:52:51;3;3;
46681;PMS5003;34101;53.430;-2.224;2023-05-07T09:55:20;6;5;
46681;PMS5003;34101;53.430;-2.224;2023-05-07T09:57:49;4;4;
46681;PMS5003;34101;53.430;-2.224;2023-05-07T10:00:18;5;4;
46681;PMS5003;34101;53.430;-2.224;2023-05-07T10:02:47;5;4;
46681;PMS5003;34101;53.430;-2.224;2023-05-07T10:05:16;4;4;
46681;PMS5003;34101;53.430;-2.224;2023-05-07T10:07:44;3;3;
46681;PMS5003;34101;53.430;-2.224;2023-05-07T10:10:12;5;5;
46681;PMS5003;34101;53.430;-2.224;2023-05-07T10:12:41;5;5;
46681;PMS5003;34101;53.430;-2.224;2023-05-07T10:15:08;7;7;
46681;PMS5003;34101;53.430;-2.224;2023-05-07T10:17:36;5;5;
46681;PMS5003;34101;53.430;-2.224;2023-05-07T10:20:05;6;6;
46681;PMS5003;34101;53.430;-2.224;2023-05-07T10:22:37;5;5;
46681;PMS5003;34101;53.430;-2.224;2023-05-07T10:25:09;6;6;
46681;PMS5003;34101;53.430;-2.224;2023-05-07T10:27:44;8;6;
46681;PMS5003;34101;53.430;-2.224;2023-05-07T10:30:15;4;4;
46681;PMS5003;34101;53.430;-2.224;2023-05-07T10:32:53;7;7;
46681;PMS5003;34101;53.430;-2.224;2023-05-07T10:35:23;4;4;
46681;PMS5003;34101;53.430;-2.224;2023-05-07T10:37:56;8;6;
46681;PMS5003;34101;53.430;-2.224;2023-05-07T10:40:23;5;5;
46681;PMS5003;34101;53.430;-2.224;2023-05-07T10:42:55;6;6;
46681;PMS5003;34101;53.430;-2.224;2023-05-07T10:45:23;7;4;
46681;PMS5003;34101;53.430;-2.224;2023-05-07T10:48:07;6;6;
46681;PMS5003;34101;53.430;-2.224;2023-05-07T10:50:41;7;6;
46681;PMS5003;34101;53.430;-2.224;2023-05-07T10:53:25;4;3;
46681;PMS5003;34101;53.430;-2.224;2023-05-07T10:56:24;3;3;
46681;PMS5003;34101;53.430;-2.224;2023-05-07T10:59:26;8;5;
46681;PMS5003;34101;53.430;-2.224;2023-05-07T10:59:33;8;5;
46681;PMS5003;34101;53.430;-2.224;2023-05-07T11:02:03;4;4;
46681;PMS5003;34101;53.430;-2.224;2023-05-07T11:04:30;6;4;
46681;PMS5003;34101;53.430;-2.224;2023-05-07T11:07:23;5;5;
46681;PMS5003;34101;53.430;-2.224;2023-05-07T11:09:54;4;4;
46681;PMS5003;34101;53.430;-2.224;2023-05-07T11:13:18;4;4;
46681;PMS5003;34101;53.430;-2.224;2023-05-07T11:16:16;5;4;
46681;PMS5003;34101;53.430;-2.224;2023-05-07T11:18:46;4;4;
46681;PMS5003;34101;53.430;-2.224;2023-05-07T11:21:16;5;4;
46681;PMS5003;34101;53.430;-2.224;2023-05-07T11:23:59;5;5;
46681;PMS5003;34101;53.430;-2.224;2023-05-07T11:26:28;5;5;
46681;PMS5003;34101;53.430;-2.224;2023-05-07T11:28:57;4;4;
46681;PMS5003;34101;53.430;-2.224;2023-05-07T11:31:24;3;3;
46681;PMS5003;34101;53.430;-2.224;2023-05-07T11:33:53;4;4;
46681;PMS5003;34101;53.430;-2.224;2023-05-07T11:36:23;5;4;
46681;PMS5003;34101;53.430;-2.224;2023-05-07T11:38:51;5;3;
46681;PMS5003;34101;53.430;-2.224;2023-05-07T11:41:18;4;4;
46681;PMS5003;34101;53.430;-2.224;2023-05-07T11:43:53;6;5;
46681;PMS5003;34101;53.430;-2.224;2023-05-07T11:46:22;3;3;
46681;PMS5003;34101;53.430;-2.224;2023-05-07T11:48:49;3;3;
46681;PMS5003;34101;53.430;-2.224;2023-05-07T11:51:24;4;4;
46681;PMS5003;34101;53.430;-2.224;2023-05-07T11:53:52;4;4;
46681;PMS5003;34101;53.430;-2.224;2023-05-07T11:56:20;4;4;
46681;PMS5003;34101;53.430;-2.224;2023-05-07T11:58:48;6;5;
46681;PMS5003;34101;53.430;-2.224;2023-05-07T12:01:16;5;5;
46681;PMS5003;34101;53.430;-2.224;2023-05-07T12:03:43;9;5;
46681;PMS5003;34101;53.430;-2.224;2023-05-07T12:06:11;5;5;
46681;PMS5003;34101;53.430;-2.224;2023-05-07T12:08:41;8;5;
46681;PMS5003;34101;53.430;-2.224;2023-05-07T12:11:13;4;4;
46681;PMS5003;34101;53.430;-2.224;2023-05-07T12:13:42;6;5;
46681;PMS5003;34101;53.430;-2.224;2023-05-07T12:16:10;7;7;
46681;PMS5003;34101;53.430;-2.224;2023-05-07T12:18:38;7;6;
46681;PMS5003;34101;53.430;-2.224;2023-05-07T12:21:11;5;5;
46681;PMS5003;34101;53.430;-2.224;2023-05-07T12:23:39;7;7;
46681;PMS5003;34101;53.430;-2.224;2023-05-07T12:26:06;5;4;
46681;PMS5003;34101;53.430;-2.224;2023-05-07T12:28:36;8;7;
46681;PMS5003;34101;53.430;-2.224;2023-05-07T12:31:05;8;8;
46681;PMS5003;34101;53.430;-2.224;2023-05-07T12:33:33;12;10;
46681;PMS5003;34101;53.430;-2.224;2023-05-07T12:36:03;11;11;
46681;PMS5003;34101;53.430;-2.224;2023-05-07T12:38:34;12;12;
46681;PMS5003;34101;53.430;-2.224;2023-05-07T12:41:03;16;14;
46681;PMS5003;34101;53.430;-2.224;2023-05-07T12:43:30;14;13;
46681;PMS5003;34101;53.430;-2.224;2023-05-07T12:45:58;14;14;
46681;PMS5003;34101;53.430;-2.224;2023-05-07T12:48:27;11;11;
46681;PMS5003;34101;53.430;-2.224;2023-05-07T12:50:55;7;7;
46681;PMS5003;34101;53.430;-2.224;2023-05-07T12:53:24;12;12;
46681;PMS5003;34101;53.430;-2.224;2023-05-07T12:55:53;13;13;
46681;PMS5003;34101;53.430;-2.224;2023-05-07T12:58:24;11;11;
46681;PMS5003;34101;53.430;-2.224;2023-05-07T13:00:52;15;14;
46681;PMS5003;34101;53.430;-2.224;2023-05-07T13:03:22;16;16;
46681;PMS5003;34101;53.430;-2.224;2023-05-07T13:05:56;10;10;
46681;PMS5003;34101;53.430;-2.224;2023-05-07T13:08:26;13;13;
46681;PMS5003;34101;53.430;-2.224;2023-05-07T13:10:55;13;12;
46681;PMS5003;34101;53.430;-2.224;2023-05-07T13:13:23;16;16;
46681;PMS5003;34101;53.430;-2.224;2023-05-07T13:15:50;18;16;
46681;PMS5003;34101;53.430;-2.224;2023-05-07T13:18:18;16;14;
46681;PMS5003;34101;53.430;-2.224;2023-05-07T13:20:45;14;14;
46681;PMS5003;34101;53.430;-2.224;2023-05-07T13:23:13;18;18;
46681;PMS5003;34101;53.430;-2.224;2023-05-07T13:25:40;16;16;
46681;PMS5003;34101;53.430;-2.224;2023-05-07T13:28:07;18;16;
46681;PMS5003;34101;53.430;-2.224;2023-05-07T13:30:35;24;20;
46681;PMS5003;34101;53.430;-2.224;2023-05-07T13:33:03;17;17;
46681;PMS5003;34101;53.430;-2.224;2023-05-07T13:35:35;19;18;
46681;PMS5003;34101;53.430;-2.224;2023-05-07T13:38:02;20;20;
46681;PMS5003;34101;53.430;-2.224;2023-05-07T13:40:29;16;16;
46681;PMS5003;34101;53.430;-2.224;2023-05-07T13:42:57;16;16;
46681;PMS5003;34101;53.430;-2.224;2023-05-07T13:45:26;17;17;
46681;PMS5003;34101;53.430;-2.224;2023-05-07T13:47:53;16;15;
46681;PMS5003;34101;53.430;-2.224;2023-05-07T13:50:21;16;16;
46681;PMS5003;34101;53.430;-2.224;2023-05-07T13:52:48;14;14;
46681;PMS5003;34101;53.430;-2.224;2023-05-07T13:55:15;14;12;
46681;PMS5003;34101;53.430;-2.224;2023-05-07T13:57:43;14;14;
46681;PMS5003;34101;53.430;-2.224;2023-05-07T14:00:12;11;11;
46681;PMS5003;34101;53.430;-2.224;2023-05-07T14:02:40;13;12;
46681;PMS5003;34101;53.430;-2.224;2023-05-07T14:05:07;15;13;
46681;PMS5003;34101;53.430;-2.224;2023-05-07T14:07:35;12;11;
46681;PMS5003;34101;53.430;-2.224;2023-05-07T14:10:02;12;12;
46681;PMS5003;34101;53.430;-2.224;2023-05-07T14:12:31;9;9;
46681;PMS5003;34101;53.430;-2.224;2023-05-07T14:14:59;9;9;
46681;PMS5003;34101;53.430;-2.224;2023-05-07T14:17:26;8;8;
46681;PMS5003;34101;53.430;-2.224;2023-05-07T14:19:54;8;8;
46681;PMS5003;34101;53.430;-2.224;2023-05-07T14:22:21;7;7;
46681;PMS5003;34101;53.430;-2.224;2023-05-07T14:24:49;5;5;
46681;PMS5003;34101;53.430;-2.224;2023-05-07T14:27:17;7;7;
46681;PMS5003;34101;53.430;-2.224;2023-05-07T14:29:44;7;7;
46681;PMS5003;34101;53.430;-2.224;2023-05-07T14:32:12;5;5;
46681;PMS5003;34101;53.430;-2.224;2023-05-07T14:34:44;5;5;
46681;PMS5003;34101;53.430;-2.224;2023-05-07T14:37:12;6;4;
46681;PMS5003;34101;53.430;-2.224;2023-05-07T14:39:39;3;3;
46681;PMS5003;34101;53.430;-2.224;2023-05-07T14:42:06;5;4;
46681;PMS5003;34101;53.430;-2.224;2023-05-07T14:44:34;3;3;
46681;PMS5003;34101;53.430;-2.224;2023-05-07T14:47:01;4;4;
46681;PMS5003;34101;53.430;-2.224;2023-05-07T14:49:29;4;4;
46681;PMS5003;34101;53.430;-2.224;2023-05-07T14:52:01;3;3;
46681;PMS5003;34101;53.430;-2.224;2023-05-07T14:54:29;3;3;
46681;PMS5003;34101;53.430;-2.224;2023-05-07T14:56:56;4;4;
46681;PMS5003;34101;53.430;-2.224;2023-05-07T14:59:23;2;2;
46681;PMS5003;34101;53.430;-2.224;2023-05-07T15:01:51;3;3;
46681;PMS5003;34101;53.430;-2.224;2023-05-07T15:04:18;3;3;
46681;PMS5003;34101;53.430;-2.224;2023-05-07T15:06:46;3;3;
46681;PMS5003;34101;53.430;-2.224;2023-05-07T15:09:13;4;4;
46681;PMS5003;34101;53.430;-2.224;2023-05-07T15:11:41;5;3;
46681;PMS5003;34101;53.430;-2.224;2023-05-07T15:14:08;3;3;
46681;PMS5003;34101;53.430;-2.224;2023-05-07T15:16:35;2;2;
46681;PMS5003;34101;53.430;-2.224;2023-05-07T15:19:03;2;2;
46681;PMS5003;34101;53.430;-2.224;2023-05-07T15:21:30;3;3;
46681;PMS5003;34101;53.430;-2.224;2023-05-07T15:23:58;2;2;
46681;PMS5003;34101;53.430;-2.224;2023-05-07T15:26:25;4;4;
46681;PMS5003;34101;53.430;-2.224;2023-05-07T15:28:53;1;1;
46681;PMS5003;34101;53.430;-2.224;2023-05-07T15:31:20;3;3;
46681;PMS5003;34101;53.430;-2.224;2023-05-07T15:33:48;3;3;
46681;PMS5003;34101;53.430;-2.224;2023-05-07T15:36:15;2;2;
46681;PMS5003;34101;53.430;-2.224;2023-05-07T15:38:42;4;4;
46681;PMS5003;34101;53.430;-2.224;2023-05-07T15:41:10;2;2;
46681;PMS5003;34101;53.430;-2.224;2023-05-07T15:43:42;1;1;
46681;PMS5003;34101;53.430;-2.224;2023-05-07T15:46:11;3;3;
46681;PMS5003;34101;53.430;-2.224;2023-05-07T15:48:39;4;3;
46681;PMS5003;34101;53.430;-2.224;2023-05-07T15:51:06;3;3;
46681;PMS5003;34101;53.430;-2.224;2023-05-07T15:53:34;3;3;
46681;PMS5003;34101;53.430;-2.224;2023-05-07T15:56:01;3;3;
46681;PMS5003;34101;53.430;-2.224;2023-05-07T15:58:28;4;4;
46681;PMS5003;34101;53.430;-2.224;2023-05-07T16:00:56;2;2;
46681;PMS5003;34101;53.430;-2.224;2023-05-07T16:03:24;3;3;
46681;PMS5003;34101;53.430;-2.224;2023-05-07T16:05:51;3;3;
46681;PMS5003;34101;53.430;-2.224;2023-05-07T16:08:18;2;2;
46681;PMS5003;34101;53.430;-2.224;2023-05-07T16:10:45;3;3;
46681;PMS5003;34101;53.430;-2.224;2023-05-07T16:13:13;2;2;
46681;PMS5003;34101;53.430;-2.224;2023-05-07T16:15:40;2;2;
46681;PMS5003;34101;53.430;-2.224;2023-05-07T16:18:08;3;3;
46681;PMS5003;34101;53.430;-2.224;2023-05-07T16:20:35;4;3;
46681;PMS5003;34101;53.430;-2.224;2023-05-07T16:23:03;2;2;
46681;PMS5003;34101;53.430;-2.224;2023-05-07T16:25:30;3;3;